Terminal Aerodrome Forecast
Issued by NWS Corpus Christi, TX

Home | Current Version | Previous Version | Text Only | Print | Product List | Glossary On
Versions: 1 2 3 4 5 6 7 8 9 10 11 12 13 14
000
FTUS44 KCRP 242300
TAFCRP
TAF
KCRP 242331Z 2500/2524 09010KT P6SM FEW030 BKN250
     FM250500 VRB03KT P6SM FEW015 SCT250
     FM251800 15012KT P6SM VCTS FEW035CB BKN250 PROB30 2518/2521
      VRB20G30KT TSRA BKN030CB=

USA.gov is the U.S. government's official web portal to all federal, state and local government web resources and services.